sensor_id;sensor_type;location;lat;lon;timestamp;temperature;humidity
16966;DHT22;8599;47.852;12.070;2023-08-24T00:00:30;23.80;99.90
16966;DHT22;8599;47.852;12.070;2023-08-24T00:02:57;23.80;99.90
16966;DHT22;8599;47.852;12.070;2023-08-24T00:05:24;23.80;99.90
16966;DHT22;8599;47.852;12.070;2023-08-24T00:07:51;23.70;99.90
16966;DHT22;8599;47.852;12.070;2023-08-24T00:10:18;23.80;99.90
16966;DHT22;8599;47.852;12.070;2023-08-24T00:12:45;23.70;99.90
16966;DHT22;8599;47.852;12.070;2023-08-24T00:15:13;23.70;99.90
16966;DHT22;8599;47.852;12.070;2023-08-24T00:17:40;23.70;99.90
16966;DHT22;8599;47.852;12.070;2023-08-24T00:20:07;23.70;99.90
16966;DHT22;8599;47.852;12.070;2023-08-24T00:22:37;23.70;99.90
16966;DHT22;8599;47.852;12.070;2023-08-24T00:25:04;23.60;99.90
16966;DHT22;8599;47.852;12.070;2023-08-24T00:27:31;23.60;99.90
16966;DHT22;8599;47.852;12.070;2023-08-24T00:29:58;23.60;99.90
16966;DHT22;8599;47.852;12.070;2023-08-24T00:32:27;23.60;99.90
16966;DHT22;8599;47.852;12.070;2023-08-24T00:34:53;23.50;99.90
16966;DHT22;8599;47.852;12.070;2023-08-24T00:37:20;23.40;99.90
16966;DHT22;8599;47.852;12.070;2023-08-24T00:39:47;23.40;99.90
16966;DHT22;8599;47.852;12.070;2023-08-24T00:42:14;23.40;99.90
16966;DHT22;8599;47.852;12.070;2023-08-24T00:44:41;23.40;99.90
16966;DHT22;8599;47.852;12.070;2023-08-24T00:47:09;23.40;99.90
16966;DHT22;8599;47.852;12.070;2023-08-24T00:49:38;23.30;99.90
16966;DHT22;8599;47.852;12.070;2023-08-24T00:52:05;23.30;99.90
16966;DHT22;8599;47.852;12.070;2023-08-24T00:54:32;23.40;99.90
16966;DHT22;8599;47.852;12.070;2023-08-24T00:56:59;23.40;99.90
16966;DHT22;8599;47.852;12.070;2023-08-24T00:59:26;23.40;99.90
16966;DHT22;8599;47.852;12.070;2023-08-24T01:01:52;23.40;99.90
16966;DHT22;8599;47.852;12.070;2023-08-24T01:04:19;23.40;99.90
16966;DHT22;8599;47.852;12.070;2023-08-24T01:06:48;23.40;99.90
16966;DHT22;8599;47.852;12.070;2023-08-24T01:09:15;23.40;99.90
16966;DHT22;8599;47.852;12.070;2023-08-24T01:11:49;23.30;99.90
16966;DHT22;8599;47.852;12.070;2023-08-24T01:14:23;23.30;99.90
16966;DHT22;8599;47.852;12.070;2023-08-24T01:16:54;23.30;99.90
16966;DHT22;8599;47.852;12.070;2023-08-24T01:19:34;23.30;99.90
16966;DHT22;8599;47.852;12.070;2023-08-24T01:22:07;23.40;99.90
16966;DHT22;8599;47.852;12.070;2023-08-24T01:24:40;23.30;99.90
16966;DHT22;8599;47.852;12.070;2023-08-24T01:27:10;23.20;99.90
16966;DHT22;8599;47.852;12.070;2023-08-24T01:29:38;23.30;99.90
16966;DHT22;8599;47.852;12.070;2023-08-24T01:32:09;23.20;99.90
16966;DHT22;8599;47.852;12.070;2023-08-24T01:34:37;23.10;99.90
16966;DHT22;8599;47.852;12.070;2023-08-24T01:37:04;22.90;99.90
16966;DHT22;8599;47.852;12.070;2023-08-24T01:39:37;22.90;99.90
16966;DHT22;8599;47.852;12.070;2023-08-24T01:42:12;22.90;99.90
16966;DHT22;8599;47.852;12.070;2023-08-24T01:44:42;22.90;99.90
16966;DHT22;8599;47.852;12.070;2023-08-24T01:47:13;23.00;99.90
16966;DHT22;8599;47.852;12.070;2023-08-24T01:49:40;23.10;99.90
16966;DHT22;8599;47.852;12.070;2023-08-24T01:52:08;23.10;99.90
16966;DHT22;8599;47.852;12.070;2023-08-24T01:54:36;23.00;99.90
16966;DHT22;8599;47.852;12.070;2023-08-24T01:57:04;23.10;99.90
16966;DHT22;8599;47.852;12.070;2023-08-24T01:59:32;23.10;99.90
16966;DHT22;8599;47.852;12.070;2023-08-24T02:01:59;23.10;99.90
16966;DHT22;8599;47.852;12.070;2023-08-24T02:04:26;23.10;99.90
16966;DHT22;8599;47.852;12.070;2023-08-24T02:06:53;23.10;99.90
16966;DHT22;8599;47.852;12.070;2023-08-24T02:09:20;23.10;99.90
16966;DHT22;8599;47.852;12.070;2023-08-24T02:11:46;23.10;99.90
16966;DHT22;8599;47.852;12.070;2023-08-24T02:14:13;23.10;99.90
16966;DHT22;8599;47.852;12.070;2023-08-24T02:16:41;23.10;99.90
16966;DHT22;8599;47.852;12.070;2023-08-24T02:19:08;23.10;99.90
16966;DHT22;8599;47.852;12.070;2023-08-24T02:21:35;23.00;99.90
16966;DHT22;8599;47.852;12.070;2023-08-24T02:24:03;23.00;99.90
16966;DHT22;8599;47.852;12.070;2023-08-24T02:26:29;23.00;99.90
16966;DHT22;8599;47.852;12.070;2023-08-24T02:28:57;23.00;99.90
16966;DHT22;8599;47.852;12.070;2023-08-24T02:31:23;22.90;99.90
16966;DHT22;8599;47.852;12.070;2023-08-24T02:33:52;22.90;99.90
16966;DHT22;8599;47.852;12.070;2023-08-24T02:36:18;22.90;99.90
16966;DHT22;8599;47.852;12.070;2023-08-24T02:38:45;22.90;99.90
16966;DHT22;8599;47.852;12.070;2023-08-24T02:41:13;23.00;99.90
16966;DHT22;8599;47.852;12.070;2023-08-24T02:43:40;23.00;99.90
16966;DHT22;8599;47.852;12.070;2023-08-24T02:46:08;22.90;99.90
16966;DHT22;8599;47.852;12.070;2023-08-24T02:48:35;22.90;99.90
16966;DHT22;8599;47.852;12.070;2023-08-24T02:51:04;22.80;99.90
16966;DHT22;8599;47.852;12.070;2023-08-24T02:53:31;22.80;99.90
16966;DHT22;8599;47.852;12.070;2023-08-24T02:55:58;22.80;99.90
16966;DHT22;8599;47.852;12.070;2023-08-24T02:58:25;22.80;99.90
16966;DHT22;8599;47.852;12.070;2023-08-24T03:00:52;22.80;99.90
16966;DHT22;8599;47.852;12.070;2023-08-24T03:03:19;22.70;99.90
16966;DHT22;8599;47.852;12.070;2023-08-24T03:05:54;22.80;99.90
16966;DHT22;8599;47.852;12.070;2023-08-24T03:08:22;22.80;99.90
16966;DHT22;8599;47.852;12.070;2023-08-24T03:10:49;22.70;99.90
16966;DHT22;8599;47.852;12.070;2023-08-24T03:13:16;22.70;99.90
16966;DHT22;8599;47.852;12.070;2023-08-24T03:15:43;22.70;99.90
16966;DHT22;8599;47.852;12.070;2023-08-24T03:18:11;22.70;99.90
16966;DHT22;8599;47.852;12.070;2023-08-24T03:20:39;22.70;99.90
16966;DHT22;8599;47.852;12.070;2023-08-24T03:23:06;22.70;99.90
16966;DHT22;8599;47.852;12.070;2023-08-24T03:25:38;22.70;99.90
16966;DHT22;8599;47.852;12.070;2023-08-24T03:28:06;22.60;99.90
16966;DHT22;8599;47.852;12.070;2023-08-24T03:30:34;22.60;99.90
16966;DHT22;8599;47.852;12.070;2023-08-24T03:33:01;22.60;99.90
16966;DHT22;8599;47.852;12.070;2023-08-24T03:35:28;22.60;99.90
16966;DHT22;8599;47.852;12.070;2023-08-24T03:37:56;22.60;99.90
16966;DHT22;8599;47.852;12.070;2023-08-24T03:40:23;22.60;99.90
16966;DHT22;8599;47.852;12.070;2023-08-24T03:42:51;22.60;99.90
16966;DHT22;8599;47.852;12.070;2023-08-24T03:45:18;22.50;99.90
16966;DHT22;8599;47.852;12.070;2023-08-24T03:47:45;22.50;99.90
16966;DHT22;8599;47.852;12.070;2023-08-24T03:50:12;22.50;99.90
16966;DHT22;8599;47.852;12.070;2023-08-24T03:52:39;22.60;99.90
16966;DHT22;8599;47.852;12.070;2023-08-24T03:55:06;22.60;99.90
16966;DHT22;8599;47.852;12.070;2023-08-24T03:57:33;22.50;99.90
16966;DHT22;8599;47.852;12.070;2023-08-24T04:00:02;22.50;99.90
16966;DHT22;8599;47.852;12.070;2023-08-24T04:02:31;22.50;99.90
16966;DHT22;8599;47.852;12.070;2023-08-24T04:04:58;22.50;99.90
16966;DHT22;8599;47.852;12.070;2023-08-24T04:07:25;22.50;99.90
16966;DHT22;8599;47.852;12.070;2023-08-24T04:09:51;22.40;99.90
16966;DHT22;8599;47.852;12.070;2023-08-24T04:12:18;22.40;99.90
16966;DHT22;8599;47.852;12.070;2023-08-24T04:14:45;22.40;99.90
16966;DHT22;8599;47.852;12.070;2023-08-24T04:17:13;22.40;99.90
16966;DHT22;8599;47.852;12.070;2023-08-24T04:19:40;22.40;99.90
16966;DHT22;8599;47.852;12.070;2023-08-24T04:22:07;22.40;99.90
16966;DHT22;8599;47.852;12.070;2023-08-24T04:24:33;22.40;99.90
16966;DHT22;8599;47.852;12.070;2023-08-24T04:27:00;22.40;99.90
16966;DHT22;8599;47.852;12.070;2023-08-24T04:29:27;22.40;99.90
16966;DHT22;8599;47.852;12.070;2023-08-24T04:31:54;22.40;99.90
16966;DHT22;8599;47.852;12.070;2023-08-24T04:34:22;22.50;99.90
16966;DHT22;8599;47.852;12.070;2023-08-24T04:36:49;22.40;99.90
16966;DHT22;8599;47.852;12.070;2023-08-24T04:39:16;22.40;99.90
16966;DHT22;8599;47.852;12.070;2023-08-24T04:41:44;22.40;99.90
16966;DHT22;8599;47.852;12.070;2023-08-24T04:44:10;22.40;99.90
16966;DHT22;8599;47.852;12.070;2023-08-24T04:46:37;22.50;99.90
16966;DHT22;8599;47.852;12.070;2023-08-24T04:49:04;22.50;99.90
16966;DHT22;8599;47.852;12.070;2023-08-24T04:51:32;22.50;99.90
16966;DHT22;8599;47.852;12.070;2023-08-24T04:53:59;22.50;99.90
16966;DHT22;8599;47.852;12.070;2023-08-24T04:56:26;22.50;99.90
16966;DHT22;8599;47.852;12.070;2023-08-24T04:58:53;22.60;99.90
16966;DHT22;8599;47.852;12.070;2023-08-24T05:01:22;22.50;99.90
16966;DHT22;8599;47.852;12.070;2023-08-24T05:03:50;22.50;99.90
16966;DHT22;8599;47.852;12.070;2023-08-24T05:06:17;22.60;99.90
16966;DHT22;8599;47.852;12.070;2023-08-24T05:08:45;22.70;99.90
16966;DHT22;8599;47.852;12.070;2023-08-24T05:11:13;22.60;99.90
16966;DHT22;8599;47.852;12.070;2023-08-24T05:13:40;22.70;99.90
16966;DHT22;8599;47.852;12.070;2023-08-24T05:16:07;22.60;99.90
16966;DHT22;8599;47.852;12.070;2023-08-24T05:18:34;22.60;99.90
16966;DHT22;8599;47.852;12.070;2023-08-24T05:21:02;22.50;99.90
16966;DHT22;8599;47.852;12.070;2023-08-24T05:23:29;22.50;99.90
16966;DHT22;8599;47.852;12.070;2023-08-24T05:25:58;22.50;99.90
16966;DHT22;8599;47.852;12.070;2023-08-24T05:28:25;22.50;99.90
16966;DHT22;8599;47.852;12.070;2023-08-24T05:30:53;22.50;99.90
16966;DHT22;8599;47.852;12.070;2023-08-24T05:33:20;22.60;99.90
16966;DHT22;8599;47.852;12.070;2023-08-24T05:35:47;22.60;99.90
16966;DHT22;8599;47.852;12.070;2023-08-24T05:38:15;22.60;99.90
16966;DHT22;8599;47.852;12.070;2023-08-24T05:40:42;22.70;99.90
16966;DHT22;8599;47.852;12.070;2023-08-24T05:43:10;22.80;99.90
16966;DHT22;8599;47.852;12.070;2023-08-24T05:45:37;22.80;99.90
16966;DHT22;8599;47.852;12.070;2023-08-24T05:48:06;22.90;99.90
16966;DHT22;8599;47.852;12.070;2023-08-24T05:50:33;22.90;99.90
16966;DHT22;8599;47.852;12.070;2023-08-24T05:52:59;22.90;99.90
16966;DHT22;8599;47.852;12.070;2023-08-24T05:55:26;23.00;99.90
16966;DHT22;8599;47.852;12.070;2023-08-24T05:57:53;23.00;99.90
16966;DHT22;8599;47.852;12.070;2023-08-24T06:00:21;23.00;99.90
16966;DHT22;8599;47.852;12.070;2023-08-24T06:02:48;23.00;99.90
16966;DHT22;8599;47.852;12.070;2023-08-24T06:05:15;23.10;99.90
16966;DHT22;8599;47.852;12.070;2023-08-24T06:07:43;23.10;99.90
16966;DHT22;8599;47.852;12.070;2023-08-24T06:10:11;23.20;99.90
16966;DHT22;8599;47.852;12.070;2023-08-24T06:12:38;23.20;99.90
16966;DHT22;8599;47.852;12.070;2023-08-24T06:15:06;23.20;99.90
16966;DHT22;8599;47.852;12.070;2023-08-24T06:17:36;23.10;99.90
16966;DHT22;8599;47.852;12.070;2023-08-24T06:20:03;23.00;99.90
16966;DHT22;8599;47.852;12.070;2023-08-24T06:22:30;23.10;99.90
16966;DHT22;8599;47.852;12.070;2023-08-24T06:24:57;23.10;99.90
16966;DHT22;8599;47.852;12.070;2023-08-24T06:27:25;23.20;99.90
16966;DHT22;8599;47.852;12.070;2023-08-24T06:29:52;23.30;99.90
16966;DHT22;8599;47.852;12.070;2023-08-24T06:32:19;23.30;99.90
16966;DHT22;8599;47.852;12.070;2023-08-24T06:34:48;23.40;99.90
16966;DHT22;8599;47.852;12.070;2023-08-24T06:37:15;23.50;99.90
16966;DHT22;8599;47.852;12.070;2023-08-24T06:39:42;23.60;99.90
16966;DHT22;8599;47.852;12.070;2023-08-24T06:42:08;23.60;99.90
16966;DHT22;8599;47.852;12.070;2023-08-24T06:44:35;23.60;99.90
16966;DHT22;8599;47.852;12.070;2023-08-24T06:47:02;23.70;99.90
16966;DHT22;8599;47.852;12.070;2023-08-24T06:49:29;23.70;99.90
16966;DHT22;8599;47.852;12.070;2023-08-24T06:51:58;23.70;99.90
16966;DHT22;8599;47.852;12.070;2023-08-24T06:54:24;23.70;99.90
16966;DHT22;8599;47.852;12.070;2023-08-24T06:56:51;23.70;99.90
16966;DHT22;8599;47.852;12.070;2023-08-24T06:59:18;23.70;99.90
16966;DHT22;8599;47.852;12.070;2023-08-24T07:01:45;23.70;99.90
16966;DHT22;8599;47.852;12.070;2023-08-24T07:04:12;23.80;99.90
16966;DHT22;8599;47.852;12.070;2023-08-24T07:06:39;23.80;99.90
16966;DHT22;8599;47.852;12.070;2023-08-24T07:09:09;23.80;99.90
16966;DHT22;8599;47.852;12.070;2023-08-24T07:11:36;23.90;99.90
16966;DHT22;8599;47.852;12.070;2023-08-24T07:14:03;23.90;99.90
16966;DHT22;8599;47.852;12.070;2023-08-24T07:16:30;23.70;99.90
16966;DHT22;8599;47.852;12.070;2023-08-24T07:18:57;23.80;99.90
16966;DHT22;8599;47.852;12.070;2023-08-24T07:21:24;23.90;99.90
16966;DHT22;8599;47.852;12.070;2023-08-24T07:23:51;24.00;99.90
16966;DHT22;8599;47.852;12.070;2023-08-24T07:26:19;24.10;99.90
16966;DHT22;8599;47.852;12.070;2023-08-24T07:28:46;24.20;99.90
16966;DHT22;8599;47.852;12.070;2023-08-24T07:31:13;24.30;99.90
16966;DHT22;8599;47.852;12.070;2023-08-24T07:33:40;24.40;99.90
16966;DHT22;8599;47.852;12.070;2023-08-24T07:36:09;24.50;99.90
16966;DHT22;8599;47.852;12.070;2023-08-24T07:38:36;24.60;99.90
16966;DHT22;8599;47.852;12.070;2023-08-24T07:41:03;24.60;99.90
16966;DHT22;8599;47.852;12.070;2023-08-24T07:43:31;24.70;99.90
16966;DHT22;8599;47.852;12.070;2023-08-24T07:45:58;24.70;99.90
16966;DHT22;8599;47.852;12.070;2023-08-24T07:48:25;24.80;99.90
16966;DHT22;8599;47.852;12.070;2023-08-24T07:50:52;24.80;99.90
16966;DHT22;8599;47.852;12.070;2023-08-24T07:53:19;24.80;99.90
16966;DHT22;8599;47.852;12.070;2023-08-24T07:55:46;24.90;99.90
16966;DHT22;8599;47.852;12.070;2023-08-24T07:58:13;24.90;99.90
16966;DHT22;8599;47.852;12.070;2023-08-24T08:00:41;24.80;99.90
16966;DHT22;8599;47.852;12.070;2023-08-24T08:03:07;25.00;99.90
16966;DHT22;8599;47.852;12.070;2023-08-24T08:05:34;25.00;99.90
16966;DHT22;8599;47.852;12.070;2023-08-24T08:08:01;25.10;99.90
16966;DHT22;8599;47.852;12.070;2023-08-24T08:10:28;25.10;99.90
16966;DHT22;8599;47.852;12.070;2023-08-24T08:12:55;25.10;99.90
16966;DHT22;8599;47.852;12.070;2023-08-24T08:15:22;25.10;99.90
16966;DHT22;8599;47.852;12.070;2023-08-24T08:17:51;25.20;99.90
16966;DHT22;8599;47.852;12.070;2023-08-24T08:20:18;25.20;99.90
16966;DHT22;8599;47.852;12.070;2023-08-24T08:22:44;25.30;99.90
16966;DHT22;8599;47.852;12.070;2023-08-24T08:25:11;25.40;99.90
16966;DHT22;8599;47.852;12.070;2023-08-24T08:27:38;25.40;99.90
16966;DHT22;8599;47.852;12.070;2023-08-24T08:30:06;25.30;99.90
16966;DHT22;8599;47.852;12.070;2023-08-24T08:32:33;25.40;99.90
16966;DHT22;8599;47.852;12.070;2023-08-24T08:35:02;25.40;99.90
16966;DHT22;8599;47.852;12.070;2023-08-24T08:37:30;25.40;99.90
16966;DHT22;8599;47.852;12.070;2023-08-24T08:39:58;25.40;99.90
16966;DHT22;8599;47.852;12.070;2023-08-24T08:42:25;25.40;99.90
16966;DHT22;8599;47.852;12.070;2023-08-24T08:44:53;25.40;99.90
16966;DHT22;8599;47.852;12.070;2023-08-24T08:47:21;25.40;99.90
16966;DHT22;8599;47.852;12.070;2023-08-24T08:49:48;25.40;99.90
16966;DHT22;8599;47.852;12.070;2023-08-24T08:52:16;25.60;99.90
16966;DHT22;8599;47.852;12.070;2023-08-24T08:54:43;25.60;99.90
16966;DHT22;8599;47.852;12.070;2023-08-24T08:57:10;25.70;99.90
16966;DHT22;8599;47.852;12.070;2023-08-24T08:59:37;25.80;99.90
16966;DHT22;8599;47.852;12.070;2023-08-24T09:02:06;25.90;99.90
16966;DHT22;8599;47.852;12.070;2023-08-24T09:04:37;25.80;99.90
16966;DHT22;8599;47.852;12.070;2023-08-24T09:07:04;25.90;99.90
16966;DHT22;8599;47.852;12.070;2023-08-24T09:09:38;26.00;99.90
16966;DHT22;8599;47.852;12.070;2023-08-24T09:12:06;26.10;99.90
16966;DHT22;8599;47.852;12.070;2023-08-24T09:14:33;26.10;99.90
16966;DHT22;8599;47.852;12.070;2023-08-24T09:17:00;26.30;99.90
16966;DHT22;8599;47.852;12.070;2023-08-24T09:19:28;26.30;99.90
16966;DHT22;8599;47.852;12.070;2023-08-24T09:21:57;26.40;99.90
16966;DHT22;8599;47.852;12.070;2023-08-24T09:24:29;26.30;99.90
16966;DHT22;8599;47.852;12.070;2023-08-24T09:26:58;26.30;99.90
16966;DHT22;8599;47.852;12.070;2023-08-24T09:29:26;26.30;99.90
16966;DHT22;8599;47.852;12.070;2023-08-24T09:31:53;26.40;99.90
16966;DHT22;8599;47.852;12.070;2023-08-24T09:34:20;26.50;99.90
16966;DHT22;8599;47.852;12.070;2023-08-24T09:36:47;26.70;99.90
16966;DHT22;8599;47.852;12.070;2023-08-24T09:39:16;26.80;99.90
16966;DHT22;8599;47.852;12.070;2023-08-24T09:41:46;26.80;99.90
16966;DHT22;8599;47.852;12.070;2023-08-24T09:44:14;26.90;99.90
16966;DHT22;8599;47.852;12.070;2023-08-24T09:46:42;26.90;99.90
16966;DHT22;8599;47.852;12.070;2023-08-24T09:49:10;26.90;99.90
16966;DHT22;8599;47.852;12.070;2023-08-24T09:51:39;27.10;99.90
16966;DHT22;8599;47.852;12.070;2023-08-24T09:54:07;27.20;99.90
16966;DHT22;8599;47.852;12.070;2023-08-24T09:56:35;27.20;99.90
16966;DHT22;8599;47.852;12.070;2023-08-24T09:59:14;27.20;99.90
16966;DHT22;8599;47.852;12.070;2023-08-24T10:01:45;27.20;99.90
16966;DHT22;8599;47.852;12.070;2023-08-24T10:04:13;27.40;99.90
16966;DHT22;8599;47.852;12.070;2023-08-24T10:06:42;27.40;99.90
16966;DHT22;8599;47.852;12.070;2023-08-24T10:09:14;27.40;99.90
16966;DHT22;8599;47.852;12.070;2023-08-24T10:11:49;27.40;99.90
16966;DHT22;8599;47.852;12.070;2023-08-24T10:14:26;27.50;99.90
16966;DHT22;8599;47.852;12.070;2023-08-24T10:16:53;27.60;99.90
16966;DHT22;8599;47.852;12.070;2023-08-24T10:19:21;27.70;99.90
16966;DHT22;8599;47.852;12.070;2023-08-24T10:21:49;27.70;99.90
16966;DHT22;8599;47.852;12.070;2023-08-24T10:24:17;27.70;99.90
16966;DHT22;8599;47.852;12.070;2023-08-24T10:26:46;27.80;99.90
16966;DHT22;8599;47.852;12.070;2023-08-24T10:29:15;27.90;99.90
16966;DHT22;8599;47.852;12.070;2023-08-24T10:31:44;28.10;99.90
16966;DHT22;8599;47.852;12.070;2023-08-24T10:34:11;28.10;99.90
16966;DHT22;8599;47.852;12.070;2023-08-24T10:36:39;28.10;99.90
16966;DHT22;8599;47.852;12.070;2023-08-24T10:39:06;28.10;99.90
16966;DHT22;8599;47.852;12.070;2023-08-24T10:41:49;28.20;99.90
16966;DHT22;8599;47.852;12.070;2023-08-24T10:44:20;28.20;99.90
16966;DHT22;8599;47.852;12.070;2023-08-24T10:47:07;28.30;99.90
16966;DHT22;8599;47.852;12.070;2023-08-24T10:49:34;28.40;99.90
16966;DHT22;8599;47.852;12.070;2023-08-24T10:52:16;28.50;99.90
16966;DHT22;8599;47.852;12.070;2023-08-24T10:54:43;28.60;99.90
16966;DHT22;8599;47.852;12.070;2023-08-24T10:57:18;28.60;99.90
16966;DHT22;8599;47.852;12.070;2023-08-24T10:59:45;28.70;99.90
16966;DHT22;8599;47.852;12.070;2023-08-24T11:02:19;28.70;99.90
16966;DHT22;8599;47.852;12.070;2023-08-24T11:05:05;28.80;99.90
16966;DHT22;8599;47.852;12.070;2023-08-24T11:07:32;28.90;99.90
16966;DHT22;8599;47.852;12.070;2023-08-24T11:09:59;28.90;99.90
16966;DHT22;8599;47.852;12.070;2023-08-24T11:15:43;29.10;99.90
16966;DHT22;8599;47.852;12.070;2023-08-24T11:18:13;29.20;99.90
16966;DHT22;8599;47.852;12.070;2023-08-24T11:20:43;29.30;99.90
16966;DHT22;8599;47.852;12.070;2023-08-24T11:23:10;29.40;99.90
16966;DHT22;8599;47.852;12.070;2023-08-24T11:25:37;29.60;99.90
16966;DHT22;8599;47.852;12.070;2023-08-24T11:28:05;29.60;99.90
16966;DHT22;8599;47.852;12.070;2023-08-24T11:30:32;29.60;99.90
16966;DHT22;8599;47.852;12.070;2023-08-24T11:32:59;29.60;99.90
16966;DHT22;8599;47.852;12.070;2023-08-24T11:35:28;29.60;99.90
16966;DHT22;8599;47.852;12.070;2023-08-24T11:37:55;29.80;99.90
16966;DHT22;8599;47.852;12.070;2023-08-24T11:40:22;29.90;99.90
16966;DHT22;8599;47.852;12.070;2023-08-24T11:42:53;29.90;99.90
16966;DHT22;8599;47.852;12.070;2023-08-24T11:45:20;30.10;99.90
16966;DHT22;8599;47.852;12.070;2023-08-24T11:47:48;30.10;99.90
16966;DHT22;8599;47.852;12.070;2023-08-24T11:50:15;30.20;99.90
16966;DHT22;8599;47.852;12.070;2023-08-24T11:52:43;30.20;99.90
16966;DHT22;8599;47.852;12.070;2023-08-24T11:55:11;30.20;99.90
16966;DHT22;8599;47.852;12.070;2023-08-24T11:57:38;30.30;99.90
16966;DHT22;8599;47.852;12.070;2023-08-24T12:00:06;30.40;99.90
16966;DHT22;8599;47.852;12.070;2023-08-24T12:02:34;30.40;99.90
16966;DHT22;8599;47.852;12.070;2023-08-24T12:05:06;30.50;99.90
16966;DHT22;8599;47.852;12.070;2023-08-24T12:07:33;30.60;99.90
16966;DHT22;8599;47.852;12.070;2023-08-24T12:10:02;30.60;99.90
16966;DHT22;8599;47.852;12.070;2023-08-24T12:12:28;30.50;99.90
16966;DHT22;8599;47.852;12.070;2023-08-24T12:14:56;30.60;99.90
16966;DHT22;8599;47.852;12.070;2023-08-24T12:17:24;30.60;99.90
16966;DHT22;8599;47.852;12.070;2023-08-24T12:19:59;30.50;99.90
16966;DHT22;8599;47.852;12.070;2023-08-24T12:22:26;30.60;99.90
16966;DHT22;8599;47.852;12.070;2023-08-24T12:24:53;30.80;99.90
16966;DHT22;8599;47.852;12.070;2023-08-24T12:27:22;31.00;99.90
16966;DHT22;8599;47.852;12.070;2023-08-24T12:29:50;31.00;99.90
16966;DHT22;8599;47.852;12.070;2023-08-24T12:32:17;31.10;99.90
16966;DHT22;8599;47.852;12.070;2023-08-24T12:34:45;31.20;99.90
16966;DHT22;8599;47.852;12.070;2023-08-24T12:37:12;31.30;99.90
16966;DHT22;8599;47.852;12.070;2023-08-24T12:39:40;31.30;99.90
16966;DHT22;8599;47.852;12.070;2023-08-24T12:42:06;31.30;99.90
16966;DHT22;8599;47.852;12.070;2023-08-24T12:44:35;31.30;99.90
16966;DHT22;8599;47.852;12.070;2023-08-24T12:47:02;31.30;99.90
16966;DHT22;8599;47.852;12.070;2023-08-24T12:49:29;31.50;99.90
16966;DHT22;8599;47.852;12.070;2023-08-24T12:51:56;31.80;99.90
16966;DHT22;8599;47.852;12.070;2023-08-24T12:54:23;32.10;99.90
16966;DHT22;8599;47.852;12.070;2023-08-24T12:56:50;32.20;99.90
16966;DHT22;8599;47.852;12.070;2023-08-24T12:59:17;32.50;99.90
16966;DHT22;8599;47.852;12.070;2023-08-24T13:01:45;32.50;99.90
16966;DHT22;8599;47.852;12.070;2023-08-24T13:04:12;32.80;99.90
16966;DHT22;8599;47.852;12.070;2023-08-24T13:06:39;32.90;99.90
16966;DHT22;8599;47.852;12.070;2023-08-24T13:09:06;32.90;99.90
16966;DHT22;8599;47.852;12.070;2023-08-24T13:11:33;33.00;99.90
16966;DHT22;8599;47.852;12.070;2023-08-24T13:14:00;33.20;99.90
16966;DHT22;8599;47.852;12.070;2023-08-24T13:16:27;33.10;99.90
16966;DHT22;8599;47.852;12.070;2023-08-24T13:18:55;33.00;99.90
16966;DHT22;8599;47.852;12.070;2023-08-24T13:21:24;33.00;99.90
16966;DHT22;8599;47.852;12.070;2023-08-24T13:23:50;32.60;99.90
16966;DHT22;8599;47.852;12.070;2023-08-24T13:26:18;32.40;99.90
16966;DHT22;8599;47.852;12.070;2023-08-24T13:28:45;32.30;99.90
16966;DHT22;8599;47.852;12.070;2023-08-24T13:31:12;32.40;99.90
16966;DHT22;8599;47.852;12.070;2023-08-24T13:33:39;32.40;99.90
16966;DHT22;8599;47.852;12.070;2023-08-24T13:36:07;32.40;99.90
16966;DHT22;8599;47.852;12.070;2023-08-24T13:38:34;32.50;99.90
16966;DHT22;8599;47.852;12.070;2023-08-24T13:41:01;32.70;99.90
16966;DHT22;8599;47.852;12.070;2023-08-24T13:43:29;32.90;99.90
16966;DHT22;8599;47.852;12.070;2023-08-24T13:45:56;33.20;99.90
16966;DHT22;8599;47.852;12.070;2023-08-24T13:48:22;33.40;99.90
16966;DHT22;8599;47.852;12.070;2023-08-24T13:50:51;33.50;99.90
16966;DHT22;8599;47.852;12.070;2023-08-24T13:53:20;33.80;99.90
16966;DHT22;8599;47.852;12.070;2023-08-24T13:55:46;34.20;99.90
16966;DHT22;8599;47.852;12.070;2023-08-24T13:58:13;34.50;99.90
16966;DHT22;8599;47.852;12.070;2023-08-24T14:00:40;34.60;99.90
16966;DHT22;8599;47.852;12.070;2023-08-24T14:03:07;34.80;99.90
16966;DHT22;8599;47.852;12.070;2023-08-24T14:05:38;35.00;99.90
16966;DHT22;8599;47.852;12.070;2023-08-24T14:08:06;34.90;99.90
16966;DHT22;8599;47.852;12.070;2023-08-24T14:10:34;34.90;99.90
16966;DHT22;8599;47.852;12.070;2023-08-24T14:13:01;34.80;99.90
16966;DHT22;8599;47.852;12.070;2023-08-24T14:15:28;34.40;99.90
16966;DHT22;8599;47.852;12.070;2023-08-24T14:17:55;34.30;99.90
16966;DHT22;8599;47.852;12.070;2023-08-24T14:20:22;34.20;99.90
16966;DHT22;8599;47.852;12.070;2023-08-24T14:22:49;34.30;99.90
16966;DHT22;8599;47.852;12.070;2023-08-24T14:25:16;34.60;99.90
16966;DHT22;8599;47.852;12.070;2023-08-24T14:27:44;34.40;99.90
16966;DHT22;8599;47.852;12.070;2023-08-24T14:30:12;34.30;99.90
16966;DHT22;8599;47.852;12.070;2023-08-24T14:32:39;34.40;99.90
16966;DHT22;8599;47.852;12.070;2023-08-24T14:35:06;34.10;99.90
16966;DHT22;8599;47.852;12.070;2023-08-24T14:37:34;33.80;99.90
16966;DHT22;8599;47.852;12.070;2023-08-24T14:40:01;33.40;99.90
16966;DHT22;8599;47.852;12.070;2023-08-24T14:42:29;33.40;99.90
16966;DHT22;8599;47.852;12.070;2023-08-24T14:44:57;33.40;99.90
16966;DHT22;8599;47.852;12.070;2023-08-24T14:47:24;33.60;99.90
16966;DHT22;8599;47.852;12.070;2023-08-24T14:49:52;33.80;99.90
16966;DHT22;8599;47.852;12.070;2023-08-24T14:52:19;34.00;99.90
16966;DHT22;8599;47.852;12.070;2023-08-24T14:54:46;34.10;99.90
16966;DHT22;8599;47.852;12.070;2023-08-24T14:57:13;34.30;99.90
16966;DHT22;8599;47.852;12.070;2023-08-24T14:59:40;34.50;99.90
16966;DHT22;8599;47.852;12.070;2023-08-24T15:02:09;34.30;99.90
16966;DHT22;8599;47.852;12.070;2023-08-24T15:04:36;34.40;99.90
16966;DHT22;8599;47.852;12.070;2023-08-24T15:07:03;34.00;99.90
16966;DHT22;8599;47.852;12.070;2023-08-24T15:09:30;33.80;99.90
16966;DHT22;8599;47.852;12.070;2023-08-24T15:11:57;33.80;99.90
16966;DHT22;8599;47.852;12.070;2023-08-24T15:14:27;33.80;99.90
16966;DHT22;8599;47.852;12.070;2023-08-24T15:16:54;33.60;99.90
16966;DHT22;8599;47.852;12.070;2023-08-24T15:19:23;33.70;99.90
16966;DHT22;8599;47.852;12.070;2023-08-24T15:21:49;33.70;99.90
16966;DHT22;8599;47.852;12.070;2023-08-24T15:24:16;33.70;99.90
16966;DHT22;8599;47.852;12.070;2023-08-24T15:26:43;33.60;99.90
16966;DHT22;8599;47.852;12.070;2023-08-24T15:29:12;33.40;99.90
16966;DHT22;8599;47.852;12.070;2023-08-24T15:31:40;33.10;99.90
16966;DHT22;8599;47.852;12.070;2023-08-24T15:34:07;32.90;99.90
16966;DHT22;8599;47.852;12.070;2023-08-24T15:36:36;32.70;99.90